CheckWX is a tool to help pilots better visualize weather data.  It is not intended as a substitute for an official pre-flight weather briefing.

07:09:20 UTC

LQSA TAF
Sarajevo International Airport
Sarajevo, Bosnia and Herzegovina
TAF LQSA 210500Z 2106/2206 VRB02KT CAVOK TX21/2113Z TN03/2106Z PROB30 2203/2206 3000 BR

Sep-21@
06:00 UTC

Sep-21 @ 06:00 UTC

Sep-22@
06:00 UTC

Sep-22 @ 06:00 UTC

TAF LQSA 210500Z 2106/2206 VRB02KT CAVOK TX21/2113Z TN03/2106Z
Wind
  • Variable at 2 KTS
Cloud Levels
  • No significant clouds

Sep-22@
03:00 UTC

Sep-22 @ 03:00 UTC

Sep-22@
06:00 UTC

Sep-22 @ 06:00 UTC

PROB30 2203/2206 3000 BR

Probable - 30% Likelihood

Probable - 30% Likelihood during this time.

Conditions
Mist